Time;durP1;ratioP1;P1;durP2;ratioP2;P2;SDS_P1;SDS_P2;PMS_P1;PMS_P2;Temp;Humidity;BMP_temperature;BMP_pressure;BME280_temperature;BME280_humidity;BME280_pressure;Samples;Min_cycle;Max_cycle;Signal;HPM_P1;HPM_P2
2022/03/23 00:01:06;;;;;;;15.70;4.57;;;;;;;5.31;41.82;100724.13;5031993;28;20084;-49
2022/03/23 00:03:34;;;;;;;15.55;4.18;;;;;;;5.28;41.49;100713.81;5026244;28;20041;-46
2022/03/23 00:06:01;;;;;;;10.93;4.25;;;;;;;5.32;41.67;100725.00;5020234;28;20077;-47
2022/03/23 00:08:27;;;;;;;8.98;4.10;;;;;;;5.31;41.60;100723.25;5014791;28;20037;-48
2022/03/23 00:10:53;;;;;;;13.18;3.97;;;;;;;5.30;42.00;100724.09;5031649;28;20045;-45
2022/03/23 00:13:19;;;;;;;10.82;3.55;;;;;;;5.25;41.79;100716.34;5031480;28;20080;-48
2022/03/23 00:15:45;;;;;;;12.32;3.85;;;;;;;5.13;41.57;100697.44;5012344;28;20587;-49
2022/03/23 00:18:12;;;;;;;10.32;3.78;;;;;;;5.21;41.99;100717.22;5013112;28;20120;-46
2022/03/23 00:20:38;;;;;;;9.10;4.13;;;;;;;5.09;42.29;100691.38;5031044;28;20093;-46
2022/03/23 00:23:05;;;;;;;18.77;4.18;;;;;;;5.19;41.96;100720.63;5019174;28;20038;-46
2022/03/23 00:25:31;;;;;;;11.75;4.13;;;;;;;5.08;41.79;100699.97;5012118;28;20042;-46
2022/03/23 00:27:57;;;;;;;12.98;3.60;;;;;;;5.09;42.23;100689.66;5030132;28;20088;-45
2022/03/23 00:30:23;;;;;;;5.63;3.45;;;;;;;5.18;41.89;100713.78;5029643;28;20037;-45
2022/03/23 00:32:50;;;;;;;9.95;4.03;;;;;;;5.18;41.78;100711.19;5029360;28;20045;-46
2022/03/23 00:35:16;;;;;;;12.23;4.10;;;;;;;5.13;41.77;100694.84;5031314;28;20034;-44
2022/03/23 00:37:43;;;;;;;12.10;4.40;;;;;;;5.09;41.91;100693.94;5018822;28;20048;-47
2022/03/23 00:40:10;;;;;;;11.75;3.97;;;;;;;5.00;42.21;100681.91;5026078;28;20046;-45
2022/03/23 00:42:37;;;;;;;12.50;4.15;;;;;;;5.10;42.46;100696.53;5027179;28;20056;-45
2022/03/23 00:45:04;;;;;;;9.60;4.22;;;;;;;5.08;42.46;100692.22;5028346;28;20091;-45
2022/03/23 00:47:30;;;;;;;10.48;4.18;;;;;;;5.07;42.54;100701.69;5028369;28;20584;-48
2022/03/23 00:49:58;;;;;;;12.70;5.03;;;;;;;5.08;42.30;100693.09;5027554;28;20041;-46
2022/03/23 00:52:25;;;;;;;12.95;5.13;;;;;;;5.03;42.63;100691.34;5029880;28;20095;-46
2022/03/23 00:54:50;;;;;;;17.90;5.68;;;;;;;5.05;42.25;100689.66;5029961;28;20045;-46
2022/03/23 00:57:16;;;;;;;14.85;5.15;;;;;;;5.05;42.47;100702.53;5012709;28;20583;-45
2022/03/23 00:59:42;;;;;;;10.60;4.97;;;;;;;4.98;42.83;100693.03;5029412;28;20093;-45
2022/03/23 01:02:10;;;;;;;15.45;5.07;;;;;;;4.96;43.16;100697.34;5030393;28;20041;-45
2022/03/23 01:04:36;;;;;;;18.23;7.63;;;;;;;4.91;42.72;100694.75;5021434;28;20048;-45
2022/03/23 01:07:03;;;;;;;16.65;6.93;;;;;;;4.77;43.26;100680.91;5061375;28;20067;-45
2022/03/23 01:09:28;;;;;;;20.10;7.53;;;;;;;4.84;43.33;100697.28;5012993;28;20033;-45
2022/03/23 01:11:55;;;;;;;14.95;6.07;;;;;;;4.82;43.25;100697.25;5029597;28;20471;-44
2022/03/23 01:14:23;;;;;;;15.18;6.47;;;;;;;4.79;43.82;100689.53;5025137;28;20406;-46
2022/03/23 01:16:53;;;;;;;14.27;6.45;;;;;;;4.77;43.47;100698.09;5029114;28;20045;-47
2022/03/23 01:19:22;;;;;;;;;;;;;;;4.77;43.51;100690.38;5029364;28;20037;-46
2022/03/23 01:21:48;;;;;;;14.57;5.38;;;;;;;4.75;43.47;100692.09;5028889;28;19982;-44
2022/03/23 01:24:14;;;;;;;13.65;5.30;;;;;;;4.73;43.34;100692.06;5026015;28;20432;-45
2022/03/23 01:26:40;;;;;;;12.95;4.55;;;;;;;4.72;43.26;100684.31;5025073;28;20041;-46
2022/03/23 01:29:06;;;;;;;13.02;4.55;;;;;;;4.71;43.39;100687.78;5026161;28;20041;-46
2022/03/23 01:31:31;;;;;;;12.65;5.05;;;;;;;4.72;43.82;100681.75;5026200;28;20041;-44
2022/03/23 01:34:00;;;;;;;14.43;5.15;;;;;;;4.71;43.56;100674.91;5022137;28;20045;-44
2022/03/23 01:36:29;;;;;;;10.48;4.38;;;;;;;4.68;43.72;100668.88;5028416;28;20053;-45
2022/03/23 01:38:55;;;;;;;;;;;;;;;4.67;44.03;100672.28;5028751;28;20500;-45
2022/03/23 01:41:21;;;;;;;17.95;5.75;;;;;;;4.68;43.51;100675.72;5026887;28;19917;-47
2022/03/23 01:43:47;;;;;;;14.98;4.57;;;;;;;4.66;43.46;100667.13;5004451;28;20082;-47
2022/03/23 01:46:16;;;;;;;12.98;5.47;;;;;;;4.65;43.84;100675.72;5029339;28;20480;-46
2022/03/23 01:48:43;;;;;;;14.90;4.70;;;;;;;4.64;43.97;100676.56;5024096;28;20095;-46
2022/03/23 01:51:10;;;;;;;11.73;4.47;;;;;;;4.61;43.81;100677.41;5027270;28;20052;-47
2022/03/23 01:53:37;;;;;;;10.05;4.72;;;;;;;4.42;44.21;100646.41;5016241;28;20038;-45
2022/03/23 01:56:03;;;;;;;10.73;4.57;;;;;;;4.56;44.15;100670.50;5008205;28;20444;-46
2022/03/23 01:58:29;;;;;;;11.73;4.28;;;;;;;4.46;44.14;100650.69;5024483;28;20132;-47
2022/03/23 02:00:54;;;;;;;14.20;4.80;;;;;;;4.52;44.09;100667.06;5042638;28;20235;-46
2022/03/23 02:03:21;;;;;;;11.98;4.70;;;;;;;4.51;44.00;100664.47;5038347;28;20045;-45
2022/03/23 02:05:48;;;;;;;11.30;4.53;;;;;;;4.49;44.35;100668.75;5008634;28;20041;-47
2022/03/23 02:08:15;;;;;;;10.35;4.40;;;;;;;4.33;44.86;100642.06;5032063;28;20525;-45
2022/03/23 02:10:42;;;;;;;10.73;4.25;;;;;;;4.43;44.67;100658.41;5017091;28;20053;-46
2022/03/23 02:13:11;;;;;;;10.77;3.95;;;;;;;4.42;44.62;100662.72;5016671;28;20065;-46
2022/03/23 02:15:38;;;;;;;9.32;3.92;;;;;;;4.41;44.83;100660.97;5031712;28;20041;-48
2022/03/23 02:18:06;;;;;;;13.98;5.63;;;;;;;4.39;44.84;100659.25;5032651;28;20497;-46
2022/03/23 02:20:32;;;;;;;12.43;4.53;;;;;;;4.35;44.89;100660.06;5031702;28;20044;-45
2022/03/23 02:22:59;;;;;;;10.95;4.20;;;;;;;4.33;44.91;100667.81;5020276;28;20041;-47
2022/03/23 02:25:28;;;;;;;9.48;4.20;;;;;;;4.16;45.05;100639.38;5019666;28;20102;-48
2022/03/23 02:27:55;;;;;;;7.53;3.72;;;;;;;4.18;45.16;100644.53;5021032;28;20041;-48
2022/03/23 02:30:21;;;;;;;13.75;4.57;;;;;;;4.26;45.44;100660.88;5031024;28;20561;-45
2022/03/23 02:32:48;;;;;;;9.10;4.20;;;;;;;4.21;45.53;100662.56;5031521;28;20708;-49
2022/03/23 02:35:15;;;;;;;10.20;3.92;;;;;;;4.19;45.65;100656.53;5026801;28;20038;-47
2022/03/23 02:37:41;;;;;;;10.93;3.97;;;;;;;4.16;45.25;100662.53;5026916;28;20041;-45
2022/03/23 02:40:09;;;;;;;10.13;3.75;;;;;;;4.14;45.66;100661.66;5031179;28;20060;-46
2022/03/23 02:42:36;;;;;;;11.52;4.70;;;;;;;4.08;45.64;100651.31;5031498;28;20049;-46
2022/03/23 02:45:02;;;;;;;13.98;3.92;;;;;;;4.00;45.97;100642.69;5029944;28;20050;-45
2022/03/23 02:47:28;;;;;;;13.55;3.72;;;;;;;3.95;45.98;100633.22;5029968;28;20077;-46
2022/03/23 02:49:54;;;;;;;10.38;4.10;;;;;;;4.09;45.87;100654.75;5030760;28;20735;-44
2022/03/23 02:52:20;;;;;;;10.00;4.15;;;;;;;4.09;46.06;100659.88;5030954;28;20041;-45
2022/03/23 03:03:30;;;;;;;12.25;4.32;;;;;;;3.95;46.58;100653.78;5013799;28;20037;-48
2022/03/23 03:05:57;;;;;;;10.45;4.35;;;;;;;3.93;46.48;100640.91;5028907;28;20061;-48
2022/03/23 03:11:07;;;;;;;12.00;4.18;;;;;;;3.91;46.45;100644.34;5019044;28;20075;-46
2022/03/23 03:13:32;;;;;;;10.82;4.30;;;;;;;3.88;46.96;100637.44;5011417;28;20129;-46
2022/03/23 03:16:02;;;;;;;12.38;5.03;;;;;;;3.88;46.82;100639.13;5024079;28;20072;-44
2022/03/23 03:18:32;;;;;;;14.35;4.25;;;;;;;3.85;47.11;100637.44;5012518;28;20041;-45
2022/03/23 03:21:00;;;;;;;12.85;5.00;;;;;;;3.81;47.15;100638.25;5019367;28;20037;-44
2022/03/23 03:23:25;;;;;;;12.35;4.22;;;;;;;3.79;47.69;100634.78;5017720;28;20069;-44
2022/03/23 03:25:51;;;;;;;11.55;4.57;;;;;;;3.77;47.63;100633.91;5028545;28;20065;-46
2022/03/23 03:28:17;;;;;;;15.27;4.68;;;;;;;3.78;47.75;100631.38;5028654;28;20055;-49
2022/03/23 03:30:43;;;;;;;10.02;4.72;;;;;;;3.79;47.75;100634.78;5029036;28;20049;-45
2022/03/23 03:33:09;;;;;;;12.43;4.45;;;;;;;3.78;48.09;100639.06;5030476;28;20140;-45
2022/03/23 03:35:34;;;;;;;13.00;4.63;;;;;;;3.79;47.80;100632.22;5031351;28;20086;-47
2022/03/23 03:38:00;;;;;;;12.57;4.78;;;;;;;3.70;47.70;100620.16;5032394;28;20100;-49
2022/03/23 03:40:26;;;;;;;15.05;4.82;;;;;;;3.76;47.62;100627.94;5031230;28;20033;-47
2022/03/23 03:42:52;;;;;;;9.93;4.55;;;;;;;3.83;47.96;100646.81;5031956;28;20045;-45
2022/03/23 03:45:18;;;;;;;14.88;5.80;;;;;;;3.84;47.82;100633.97;5031461;28;20041;-46
2022/03/23 03:47:44;;;;;;;13.98;5.82;;;;;;;3.75;47.80;100617.63;5013046;28;20060;-45
2022/03/23 03:50:11;;;;;;;12.38;5.60;;;;;;;3.86;47.79;100640.84;5030556;28;20513;-48
2022/03/23 03:52:37;;;;;;;13.70;4.63;;;;;;;3.77;47.65;100619.34;5031980;28;20037;-47
2022/03/23 03:55:04;;;;;;;14.98;5.82;;;;;;;3.83;47.88;100624.53;5031942;28;20044;-45
2022/03/23 03:57:30;;;;;;;10.63;4.88;;;;;;;3.84;48.06;100627.97;5012129;28;20041;-46
2022/03/23 03:59:56;;;;;;;16.95;4.80;;;;;;;3.85;48.29;100629.72;5026091;28;20053;-44
2022/03/23 04:02:21;;;;;;;17.60;4.82;;;;;;;3.87;48.27;100629.72;5032345;28;20075;-46
2022/03/23 04:04:47;;;;;;;12.45;5.28;;;;;;;3.88;48.01;100629.72;5031024;28;20502;-45
2022/03/23 04:07:13;;;;;;;11.52;5.40;;;;;;;3.91;48.12;100632.34;5027486;28;20428;-45
2022/03/23 04:09:39;;;;;;;27.67;5.80;;;;;;;3.94;48.26;100628.91;5030958;28;20053;-46
2022/03/23 04:12:05;;;;;;;14.50;5.60;;;;;;;3.97;48.21;100623.81;5021041;28;20125;-45
2022/03/23 04:14:31;;;;;;;16.58;5.88;;;;;;;4.00;48.29;100622.09;5016225;28;20045;-47
2022/03/23 04:16:57;;;;;;;14.50;5.20;;;;;;;4.04;48.07;100616.13;5029503;28;20056;-48
2022/03/23 04:19:22;;;;;;;19.48;5.53;;;;;;;4.04;47.75;100615.25;5030185;28;20492;-44
2022/03/23 04:21:48;;;;;;;15.35;5.50;;;;;;;3.99;47.98;100604.06;5016071;28;20079;-47
2022/03/23 04:24:14;;;;;;;14.52;5.57;;;;;;;4.09;48.02;100605.84;5030821;28;20053;-46
2022/03/23 04:26:40;;;;;;;21.10;6.13;;;;;;;4.13;47.96;100612.78;5028722;28;20433;-46
2022/03/23 04:29:06;;;;;;;18.08;6.47;;;;;;;4.08;47.91;100596.44;5011354;28;20425;-47
2022/03/23 04:31:32;;;;;;;17.98;5.97;;;;;;;4.19;48.34;100610.19;5030779;28;20048;-44
2022/03/23 04:33:57;;;;;;;30.10;6.75;;;;;;;4.20;48.05;100610.22;5030427;28;20037;-46
2022/03/23 04:36:23;;;;;;;23.75;6.90;;;;;;;4.14;48.07;100599.88;5026288;28;20055;-46
2022/03/23 04:38:49;;;;;;;16.95;6.50;;;;;;;4.27;47.77;100613.72;5025800;28;20049;-49
2022/03/23 04:41:15;;;;;;;18.52;6.97;;;;;;;4.24;47.57;100595.66;5027492;28;20106;-46
2022/03/23 04:43:41;;;;;;;15.07;6.22;;;;;;;4.36;47.45;100605.16;5031492;28;20048;-46
2022/03/23 04:46:06;;;;;;;14.75;5.57;;;;;;;4.41;47.55;100608.63;5000113;28;20470;-47
2022/03/23 04:48:33;;;;;;;11.90;5.53;;;;;;;4.34;47.45;100591.44;5010271;28;20080;-46
2022/03/23 04:50:59;;;;;;;15.23;5.47;;;;;;;4.48;46.89;100611.25;5032251;28;20090;-45
2022/03/23 04:53:25;;;;;;;14.60;6.30;;;;;;;4.52;47.07;100612.97;5027199;28;20068;-45
2022/03/23 04:55:50;;;;;;;18.05;6.63;;;;;;;4.41;46.87;100583.75;5029311;28;20095;-48
2022/03/23 04:58:16;;;;;;;16.65;6.78;;;;;;;4.54;47.27;100606.13;5029335;28;20048;-46
2022/03/23 05:00:42;;;;;;;20.17;6.20;;;;;;;4.54;46.89;100595.84;5016462;28;20046;-46
2022/03/23 05:03:08;;;;;;;13.77;6.07;;;;;;;4.59;46.69;100591.56;5020349;28;20044;-45
2022/03/23 05:05:33;;;;;;;14.77;6.93;;;;;;;4.68;46.78;100604.47;5029303;28;20037;-45
2022/03/23 05:07:59;;;;;;;14.68;6.13;;;;;;;4.81;46.68;100596.81;5016523;28;20026;-47
2022/03/23 05:10:27;;;;;;;18.63;6.43;;;;;;;4.85;46.06;100599.38;5028282;28;20041;-44
2022/03/23 05:12:53;;;;;;;17.75;6.57;;;;;;;4.96;46.37;100594.28;5028714;28;20041;-46
2022/03/23 05:15:19;;;;;;;20.33;7.07;;;;;;;5.06;46.02;100593.44;5005177;28;20084;-48
2022/03/23 05:17:45;;;;;;;19.13;6.25;;;;;;;5.11;45.99;100596.88;5022370;28;20127;-47
2022/03/23 05:20:13;;;;;;;15.88;6.35;;;;;;;5.07;45.94;100590.88;5029659;28;20107;-46
2022/03/23 05:22:39;;;;;;;14.13;6.10;;;;;;;5.17;45.65;100598.63;5028116;28;20033;-46
2022/03/23 05:25:06;;;;;;;15.48;6.53;;;;;;;5.26;45.61;100590.91;5028924;28;20037;-45
2022/03/23 05:27:37;;;;;;;16.98;5.82;;;;;;;5.33;45.34;100592.63;5029628;28;20045;-46
2022/03/23 05:30:05;;;;;;;13.98;6.22;;;;;;;5.33;44.95;100584.91;5028713;28;20041;-46
2022/03/23 05:32:31;;;;;;;17.88;6.10;;;;;;;5.43;44.64;100590.06;5027816;28;20043;-45
2022/03/23 05:34:56;;;;;;;16.20;6.40;;;;;;;5.53;45.01;100584.06;5027722;28;20041;-45
2022/03/23 05:37:22;;;;;;;22.00;6.00;;;;;;;5.66;44.87;100595.22;5028270;28;20029;-46
2022/03/23 05:39:48;;;;;;;28.13;7.00;;;;;;;5.79;44.26;100590.94;5027461;28;20461;-45
2022/03/23 05:42:15;;;;;;;14.07;6.40;;;;;;;5.90;44.44;100584.09;5033041;28;20049;-47
2022/03/23 05:44:41;;;;;;;15.43;6.13;;;;;;;6.05;44.03;100591.81;5032102;28;20072;-48
2022/03/23 05:47:06;;;;;;;21.30;6.38;;;;;;;6.20;43.87;100589.19;5022530;28;20069;-50
2022/03/23 05:49:32;;;;;;;17.33;6.35;;;;;;;6.34;43.96;100592.59;5048860;28;20111;-44
2022/03/23 05:51:58;;;;;;;24.83;7.60;;;;;;;6.47;42.91;100593.41;4986745;28;20429;-51
2022/03/23 05:54:24;;;;;;;17.08;6.68;;;;;;;6.70;43.10;100589.00;5046850;28;20479;-54
2022/03/23 05:56:50;;;;;;;23.48;6.75;;;;;;;6.96;42.53;100577.72;5032773;28;20129;-53
2022/03/23 05:59:17;;;;;;;18.00;6.45;;;;;;;7.60;41.54;100586.75;5032435;28;20057;-51
2022/03/23 06:01:42;;;;;;;30.00;8.20;;;;;;;8.56;40.04;100582.41;5029037;28;20077;-51
2022/03/23 06:04:08;;;;;;;19.13;6.88;;;;;;;9.63;38.10;100580.03;5032528;28;20053;-50
2022/03/23 06:06:34;;;;;;;20.92;7.00;;;;;;;10.51;36.30;100557.66;5032371;28;20046;-57
2022/03/23 06:09:01;;;;;;;17.48;7.35;;;;;;;11.53;35.03;100582.28;5031750;28;20081;-56
2022/03/23 06:11:27;;;;;;;22.95;7.35;;;;;;;12.42;33.62;100578.28;4998528;28;20422;-53
2022/03/23 06:13:53;;;;;;;22.15;6.97;;;;;;;13.32;31.75;100581.72;5033308;28;20124;-55
2022/03/23 06:16:19;;;;;;;21.25;7.32;;;;;;;14.22;30.53;100580.47;5022852;28;20060;-54
2022/03/23 06:18:51;;;;;;;23.30;7.60;;;;;;;15.13;29.15;100579.72;4981261;28;20049;-52
2022/03/23 06:21:17;;;;;;;25.70;7.40;;;;;;;15.86;28.10;100571.53;5023215;28;20050;-55
2022/03/23 06:23:43;;;;;;;25.17;7.88;;;;;;;16.54;27.13;100576.44;5015272;28;20128;-56
2022/03/23 06:26:09;;;;;;;19.05;8.25;;;;;;;17.16;26.33;100566.66;5028712;28;20046;-55
2022/03/23 06:28:35;;;;;;;20.13;7.97;;;;;;;17.83;25.04;100568.66;5013252;28;20034;-56
2022/03/23 06:31:01;;;;;;;24.02;8.25;;;;;;;18.37;24.26;100565.81;5022516;28;20121;-54
2022/03/23 06:33:27;;;;;;;15.68;7.38;;;;;;;18.94;23.42;100558.41;5031914;28;20043;-55
2022/03/23 06:35:53;;;;;;;20.48;7.60;;;;;;;19.42;22.52;100567.97;5050441;28;20045;-49
2022/03/23 06:38:19;;;;;;;19.40;7.40;;;;;;;19.97;22.10;100564.84;5035417;28;20099;-50
2022/03/23 06:40:45;;;;;;;25.17;7.85;;;;;;;20.51;21.18;100553.63;5028098;28;20505;-52
2022/03/23 06:43:11;;;;;;;17.48;7.72;;;;;;;21.03;20.75;100556.50;5012541;28;20037;-54
2022/03/23 06:45:40;;;;;;;24.92;8.00;;;;;;;21.63;20.34;100557.94;5034085;28;20072;-54
2022/03/23 06:48:06;;;;;;;20.92;8.45;;;;;;;22.15;19.83;100557.97;5037336;28;20540;-53
2022/03/23 06:50:33;;;;;;;24.70;8.32;;;;;;;22.58;19.37;100554.03;5042648;28;20037;-58
2022/03/23 06:52:59;;;;;;;19.08;9.48;;;;;;;23.03;18.91;100547.28;5033135;28;20042;-54
2022/03/23 06:55:25;;;;;;;20.08;8.00;;;;;;;23.51;18.26;100550.00;5031796;28;20041;-55
2022/03/23 06:57:51;;;;;;;19.25;8.20;;;;;;;23.95;17.69;100552.00;5032911;28;20151;-52
2022/03/23 07:00:16;;;;;;;16.58;8.00;;;;;;;24.37;17.50;100547.88;5032352;28;20508;-55
2022/03/23 07:02:43;;;;;;;18.17;7.90;;;;;;;24.82;16.83;100546.03;5046066;28;20041;-53
2022/03/23 07:05:10;;;;;;;22.13;10.25;;;;;;;25.31;16.25;100549.16;5037961;28;20107;-54
2022/03/23 07:07:37;;;;;;;18.52;8.38;;;;;;;25.71;15.91;100540.53;5041825;28;20060;-53
2022/03/23 07:10:06;;;;;;;14.05;7.13;;;;;;;26.01;15.82;100545.13;5049851;28;20047;-52
2022/03/23 07:12:32;;;;;;;15.95;6.93;;;;;;;26.10;15.70;100539.00;5037045;28;20506;-55
2022/03/23 07:14:58;;;;;;;13.20;7.15;;;;;;;26.28;15.55;100541.94;5014008;28;20047;-54
2022/03/23 07:17:24;;;;;;;15.63;7.15;;;;;;;26.50;15.09;100539.09;5012965;28;20572;-53
2022/03/23 07:19:50;;;;;;;11.57;6.90;;;;;;;26.56;14.81;100536.75;5040150;28;20511;-51
2022/03/23 07:22:16;;;;;;;27.38;8.10;;;;;;;26.93;14.84;100534.38;5027694;28;20041;-50
2022/03/23 07:24:44;;;;;;;20.40;7.53;;;;;;;27.29;14.19;100535.56;5031735;28;20115;-55
2022/03/23 07:27:10;;;;;;;15.63;7.28;;;;;;;27.69;13.91;100532.78;5006464;28;20049;-54
2022/03/23 07:29:36;;;;;;;13.07;6.65;;;;;;;28.03;13.39;100530.50;5031704;28;20087;-50
2022/03/23 07:32:03;;;;;;;18.10;7.65;;;;;;;28.29;13.64;100528.09;5029649;28;20466;-48
2022/03/23 07:34:29;;;;;;;19.10;7.35;;;;;;;28.47;13.34;100525.50;5029548;28;20046;-53
2022/03/23 07:36:55;;;;;;;26.27;7.82;;;;;;;28.37;13.46;100528.19;5032211;28;20045;-52
2022/03/23 07:39:23;;;;;;;18.90;7.68;;;;;;;28.74;13.21;100522.00;5030508;28;20041;-53
2022/03/23 07:41:50;;;;;;;10.73;6.40;;;;;;;28.97;12.76;100515.25;5046116;28;20120;-55
2022/03/23 07:44:19;;;;;;;12.02;6.40;;;;;;;28.85;12.79;100521.81;5032348;28;20128;-51
2022/03/23 07:46:45;;;;;;;18.95;6.90;;;;;;;28.96;12.84;100522.44;5062865;28;20103;-51
2022/03/23 07:49:12;;;;;;;17.08;7.25;;;;;;;29.36;12.33;100516.69;5032566;28;20501;-51
2022/03/23 07:51:39;;;;;;;21.98;7.18;;;;;;;29.77;12.41;100517.91;4997862;28;20045;-54
2022/03/23 07:54:06;;;;;;;16.58;7.75;;;;;;;29.83;12.46;100506.53;5027738;28;20120;-52
2022/03/23 07:56:32;;;;;;;10.30;6.78;;;;;;;29.99;12.07;100515.75;5012223;28;20096;-51
2022/03/23 07:58:58;;;;;;;16.58;7.07;;;;;;;30.16;11.89;100518.38;5012094;28;20038;-53
2022/03/23 08:01:24;;;;;;;17.88;7.05;;;;;;;30.08;12.14;100514.81;5026436;28;20119;-55
2022/03/23 08:03:50;;;;;;;12.00;6.65;;;;;;;29.67;12.15;100509.13;5031139;28;20500;-53
2022/03/23 08:06:16;;;;;;;16.17;7.35;;;;;;;29.12;12.26;100503.03;5031871;28;20102;-51
2022/03/23 08:08:42;;;;;;;15.52;7.07;;;;;;;28.97;12.52;100502.72;5031942;28;20045;-50
2022/03/23 08:11:08;;;;;;;17.75;7.00;;;;;;;29.12;12.37;100492.31;5026200;28;20037;-52
2022/03/23 08:13:34;;;;;;;16.50;6.97;;;;;;;28.84;12.39;100496.88;5030568;28;20048;-55
2022/03/23 08:16:01;;;;;;;14.32;7.47;;;;;;;28.77;12.63;100490.44;5021968;28;20091;-54
2022/03/23 08:18:27;;;;;;;23.02;6.72;;;;;;;29.32;12.18;100493.88;5026764;28;20521;-51
2022/03/23 08:20:53;;;;;;;16.63;6.13;;;;;;;29.80;11.83;100490.78;5012413;28;20128;-55
2022/03/23 08:23:19;;;;;;;13.05;6.80;;;;;;;30.35;11.26;100489.66;5026451;28;20084;-50
2022/03/23 08:25:45;;;;;;;19.30;6.38;;;;;;;30.43;11.55;100487.84;5011399;28;20421;-52
2022/03/23 08:28:12;;;;;;;11.10;5.22;;;;;;;30.45;11.03;100493.06;5011340;28;20037;-51
2022/03/23 08:30:38;;;;;;;10.77;5.25;;;;;;;30.21;11.19;100486.53;5030615;28;20545;-55
2022/03/23 08:33:05;;;;;;;8.10;5.68;;;;;;;30.53;11.16;100485.06;5019391;28;20053;-53
2022/03/23 08:35:31;;;;;;;20.20;6.18;;;;;;;30.84;11.03;100479.97;5045926;28;20064;-51
2022/03/23 08:37:57;;;;;;;9.23;5.00;;;;;;;31.00;11.04;100477.31;5031026;28;20045;-53
2022/03/23 08:40:23;;;;;;;9.38;5.50;;;;;;;31.03;10.72;100468.97;5025937;28;20095;-53
2022/03/23 08:42:49;;;;;;;8.23;5.50;;;;;;;31.15;10.73;100470.31;5011161;28;20042;-55
2022/03/23 08:45:16;;;;;;;9.05;4.05;;;;;;;30.92;10.36;100471.94;5010916;28;20049;-53
2022/03/23 08:47:42;;;;;;;10.20;4.00;;;;;;;31.04;10.55;100466.09;5009940;28;20481;-52
2022/03/23 08:50:11;;;;;;;10.77;3.90;;;;;;;31.37;10.56;100458.06;5011154;28;20497;-50
2022/03/23 08:52:38;;;;;;;7.57;4.43;;;;;;;31.72;10.26;100462.31;5014755;28;20088;-51
2022/03/23 08:55:05;;;;;;;7.20;4.05;;;;;;;31.89;10.19;100450.50;5025028;28;20076;-50
2022/03/23 08:57:31;;;;;;;4.10;3.70;;;;;;;31.85;9.71;100455.41;5010236;28;20398;-51
2022/03/23 08:59:56;;;;;;;3.28;3.00;;;;;;;31.63;9.71;100452.56;5014239;28;20049;-51
2022/03/23 09:02:22;;;;;;;13.40;4.00;;;;;;;32.00;9.94;100446.59;5016158;28;20052;-51
2022/03/23 09:04:48;;;;;;;6.45;3.60;;;;;;;32.41;9.69;100448.19;5012602;28;20137;-56
2022/03/23 09:07:14;;;;;;;5.70;3.55;;;;;;;32.34;9.27;100448.06;5030690;28;20045;-56
2022/03/23 09:09:40;;;;;;;6.40;3.90;;;;;;;32.17;9.51;100432.97;5030668;28;20087;-50
2022/03/23 09:12:06;;;;;;;7.72;3.40;;;;;;;31.87;9.47;100433.72;5024681;28;20053;-54
2022/03/23 09:14:32;;;;;;;6.95;3.67;;;;;;;31.73;9.97;100432.53;5030120;28;20115;-55
2022/03/23 09:16:57;;;;;;;4.90;3.53;;;;;;;30.29;10.13;100426.72;5045282;28;20080;-52
2022/03/23 09:19:23;;;;;;;5.68;3.28;;;;;;;29.93;10.44;100427.88;5029164;28;20065;-52
2022/03/23 09:21:50;;;;;;;5.10;3.28;;;;;;;30.78;10.26;100425.06;5003279;28;20033;-51
2022/03/23 09:24:19;;;;;;;7.43;3.80;;;;;;;31.45;10.25;100412.41;5010645;28;20068;-51
2022/03/23 09:26:45;;;;;;;8.88;3.65;;;;;;;32.15;9.93;100416.16;5028591;28;20045;-52
2022/03/23 09:29:12;;;;;;;11.10;6.43;;;;;;;31.98;9.43;100411.00;5030133;28;20048;-52
2022/03/23 09:31:38;;;;;;;6.10;3.97;;;;;;;32.40;9.71;100413.38;5019797;28;20107;-53
2022/03/23 09:34:05;;;;;;;9.55;3.67;;;;;;;32.79;9.65;100412.34;4996528;28;20049;-55
2022/03/23 09:39:17;;;;;;;6.22;3.30;;;;;;;33.24;9.10;100407.16;5030345;28;20037;-54
2022/03/23 09:41:47;;;;;;;6.28;3.45;;;;;;;33.54;9.05;100406.22;5012753;28;20050;-56
2022/03/23 09:44:13;;;;;;;10.68;3.70;;;;;;;33.29;8.79;100400.19;5012271;28;20053;-54
2022/03/23 09:46:39;;;;;;;5.68;3.70;;;;;;;33.41;8.74;100406.81;5015889;28;20056;-53
2022/03/23 09:49:06;;;;;;;5.35;3.30;;;;;;;33.30;8.77;100401.03;5010896;28;20041;-55
2022/03/23 09:51:33;;;;;;;6.07;3.40;;;;;;;33.12;8.78;100390.53;5011366;28;20525;-53
2022/03/23 09:54:00;;;;;;;4.00;3.30;;;;;;;33.26;8.78;100384.38;5009072;28;20048;-52
2022/03/23 09:56:26;;;;;;;6.43;3.72;;;;;;;33.49;8.90;100390.59;5010363;28;20045;-53
2022/03/23 09:58:52;;;;;;;6.47;3.92;;;;;;;33.11;8.78;100380.78;5010667;28;20045;-52
2022/03/23 10:01:46;;;;;;;6.90;3.40;;;;;;;33.30;8.75;100382.16;5034273;28;20056;-53
2022/03/23 10:04:12;;;;;;;6.22;3.65;;;;;;;33.11;8.77;100372.69;5020410;28;20513;-53
2022/03/23 10:07:02;;;;;;;7.38;3.85;;;;;;;33.31;8.69;100373.88;5018404;28;20095;-55
2022/03/23 10:10:05;;;;;;;18.67;4.53;;;;;;;33.47;8.72;100362.09;5008995;28;20133;-52
2022/03/23 10:13:08;;;;;;;14.80;4.10;;;;;;;33.59;8.63;100358.78;5041168;28;20489;-52
2022/03/23 10:15:59;;;;;;;7.50;3.53;;;;;;;33.65;8.47;100356.38;5029539;28;20103;-55
2022/03/23 10:18:53;;;;;;;10.07;7.40;;;;;;;33.49;8.47;100349.28;5029044;28;20041;-53
2022/03/23 10:21:20;;;;;;;14.65;6.00;;;;;;;32.86;8.57;100349.66;5003304;28;20046;-54
2022/03/23 10:23:59;;;;;;;4.78;3.78;;;;;;;32.12;9.24;100341.16;5025939;28;20424;-52
2022/03/23 10:26:29;;;;;;;4.15;3.40;;;;;;;32.37;8.96;100342.72;5022823;28;20041;-55
2022/03/23 10:28:56;;;;;;;4.20;3.67;;;;;;;32.86;8.68;100342.41;5032292;28;20037;-51
2022/03/23 10:31:24;;;;;;;5.80;3.47;;;;;;;32.56;8.61;100329.78;5032513;28;20037;-51
2022/03/23 10:34:07;;;;;;;10.50;4.10;;;;;;;32.65;8.63;100326.09;5015165;28;20034;-54
2022/03/23 10:36:33;;;;;;;12.18;3.63;;;;;;;32.87;8.86;100330.59;5020506;28;20060;-55
2022/03/23 10:39:01;;;;;;;6.28;4.13;;;;;;;33.02;8.68;100326.13;5032885;28;20416;-54
2022/03/23 10:41:27;;;;;;;4.18;3.35;;;;;;;32.82;8.50;100321.41;5036061;28;20042;-55
2022/03/23 10:43:53;;;;;;;13.95;4.50;;;;;;;32.88;8.33;100308.03;5011838;28;20048;-52
2022/03/23 10:46:20;;;;;;;12.32;4.00;;;;;;;32.64;8.75;100308.22;5019776;28;20049;-52
2022/03/23 10:49:01;;;;;;;8.32;3.50;;;;;;;32.14;8.68;100301.44;5031585;28;20535;-53
2022/03/23 10:51:32;;;;;;;7.35;4.38;;;;;;;31.60;8.90;100287.03;5032527;28;20045;-52
2022/03/23 10:53:58;;;;;;;4.75;3.85;;;;;;;31.88;9.04;100290.94;5032212;28;20487;-53
2022/03/23 10:56:37;;;;;;;6.13;3.70;;;;;;;32.32;9.00;100285.03;5026243;28;20086;-53
2022/03/23 10:59:21;;;;;;;6.13;4.20;;;;;;;32.61;8.65;100287.84;5012594;28;20409;-53
2022/03/23 11:02:05;;;;;;;4.55;3.67;;;;;;;32.82;8.54;100295.28;5020924;28;20045;-54
2022/03/23 11:04:40;;;;;;;6.15;4.10;;;;;;;32.68;8.50;100288.00;5013107;28;20038;-54
2022/03/23 11:07:06;;;;;;;6.90;5.43;;;;;;;32.60;9.09;100282.66;5024619;28;20152;-51
2022/03/23 11:18:15;;;;;;;5.35;4.00;;;;;;;32.19;8.48;100258.69;5013829;28;20048;-51
2022/03/23 11:20:48;;;;;;;7.10;3.90;;;;;;;32.13;8.44;100251.34;4995140;28;20091;-55
2022/03/23 11:23:17;;;;;;;6.30;3.90;;;;;;;32.33;8.61;100255.25;5023997;28;20049;-54
2022/03/23 11:25:48;;;;;;;7.38;4.00;;;;;;;32.50;8.48;100250.59;5064458;28;20033;-52
2022/03/23 11:28:15;;;;;;;5.65;3.72;;;;;;;32.55;8.32;100253.59;5012495;28;20038;-54
2022/03/23 11:30:44;;;;;;;6.97;3.83;;;;;;;32.08;8.45;100248.34;5012410;28;20065;-55
2022/03/23 11:33:11;;;;;;;6.15;3.75;;;;;;;32.11;8.92;100242.59;5017153;28;20049;-52
2022/03/23 11:35:45;;;;;;;7.68;3.25;;;;;;;32.38;8.65;100249.34;5032537;28;20048;-56
2022/03/23 11:38:12;;;;;;;5.38;3.60;;;;;;;32.12;8.51;100254.22;5014750;28;20053;-56
2022/03/23 11:40:40;;;;;;;5.30;3.50;;;;;;;32.25;8.62;100233.75;5019194;28;20575;-52
2022/03/23 11:43:44;;;;;;;4.28;3.72;;;;;;;32.13;8.71;100237.06;5015042;28;20060;-53
2022/03/23 11:46:10;;;;;;;8.10;3.92;;;;;;;31.77;8.79;100231.34;5044253;28;20116;-51
2022/03/23 11:48:43;;;;;;;4.45;3.60;;;;;;;31.96;8.57;100231.75;4994485;28;20041;-51
2022/03/23 11:51:27;;;;;;;6.03;3.30;;;;;;;31.73;8.75;100225.47;5012588;28;20061;-50